createdAt,value
2022-09-10T00:21:12.190Z,15.50
2022-09-10T00:27:42.765Z,15.40
2022-09-10T00:30:15.712Z,15.40
2022-09-10T00:32:57.820Z,15.30
2022-09-10T00:35:24.902Z,15.40
2022-09-10T00:38:00.040Z,15.30
2022-09-10T03:02:07.898Z,15.40
2022-09-10T04:05:34.213Z,15.40
2022-09-10T04:08:03.339Z,15.50
2022-09-10T04:10:33.610Z,15.50
2022-09-10T04:13:00.294Z,15.50
2022-09-10T04:15:36.688Z,15.50
2022-09-10T04:18:11.084Z,15.50
2022-09-10T04:20:41.042Z,15.50
2022-09-10T04:23:07.734Z,15.50
2022-09-10T04:25:52.645Z,15.50
2022-09-10T04:28:31.385Z,15.50
2022-09-10T04:31:07.353Z,15.50
2022-09-10T04:33:34.306Z,15.50
2022-09-10T04:36:01.232Z,15.50
2022-09-10T04:38:28.992Z,15.50
2022-09-10T04:41:03.957Z,15.50
2022-09-10T04:43:31.347Z,15.50
2022-09-10T04:45:58.081Z,15.50
2022-09-10T04:48:30.473Z,15.50
2022-09-10T04:51:15.169Z,15.50
2022-09-10T04:53:42.634Z,15.50
2022-09-10T04:56:11.599Z,15.50
2022-09-10T04:58:56.260Z,15.50
2022-09-10T05:01:23.119Z,15.50
2022-09-10T05:04:09.587Z,15.50
2022-09-10T05:06:36.206Z,15.50
2022-09-10T05:09:59.129Z,15.50
2022-09-10T05:12:23.938Z,15.50
2022-09-10T05:14:50.764Z,15.50
2022-09-10T05:17:17.352Z,15.50
2022-09-10T05:19:50.096Z,15.50
2022-09-10T05:22:16.716Z,15.50
2022-09-10T05:24:43.372Z,15.50
2022-09-10T05:27:15.282Z,15.50
2022-09-10T05:29:41.920Z,15.50
2022-09-10T05:32:17.890Z,15.50
2022-09-10T05:37:36.415Z,15.50
2022-09-10T05:40:49.821Z,15.50
2022-09-10T05:46:19.958Z,15.60
2022-09-10T05:48:47.049Z,15.60
2022-09-10T06:01:23.803Z,15.70
2022-09-10T06:49:15.263Z,16.80
2022-09-10T06:52:16.435Z,16.90
2022-09-10T07:05:03.315Z,16.80
2022-09-10T09:16:24.859Z,19.90
2022-09-10T09:19:36.299Z,20.30
2022-09-10T14:22:43.044Z,21.00
2022-09-10T14:25:34.473Z,20.80
2022-09-10T14:28:16.447Z,20.80
2022-09-10T14:30:51.248Z,20.80
2022-09-10T14:33:35.668Z,21.00
2022-09-10T14:36:32.558Z,21.10
2022-09-10T14:39:22.486Z,20.90
2022-09-10T14:41:49.785Z,21.10
2022-09-10T14:44:19.458Z,21.00
2022-09-10T14:49:52.366Z,21.00
2022-09-10T14:52:19.209Z,21.00
2022-09-10T14:54:47.160Z,20.80
2022-09-10T14:57:19.338Z,20.80
2022-09-10T14:59:46.505Z,20.70
2022-09-10T15:02:28.957Z,20.80
2022-09-10T15:04:59.886Z,20.70
2022-09-10T15:10:25.736Z,20.40
2022-09-10T15:12:52.476Z,20.30
2022-09-10T15:16:01.789Z,20.30
2022-09-10T15:18:28.562Z,20.50
2022-09-10T15:27:17.435Z,20.60
2022-09-10T15:30:02.323Z,20.70
2022-09-10T15:32:28.951Z,20.60
2022-09-10T15:34:55.584Z,20.50
2022-09-10T15:37:24.768Z,20.70
2022-09-10T15:39:54.327Z,20.60
2022-09-10T15:45:24.289Z,20.60
2022-09-10T15:47:57.146Z,20.60
2022-09-10T15:57:09.435Z,20.40
2022-09-10T16:09:17.302Z,20.50
2022-09-10T16:11:46.233Z,20.40
2022-09-10T16:14:14.426Z,20.40
2022-09-10T16:16:50.377Z,20.30
2022-09-10T16:19:20.207Z,20.40
2022-09-10T16:21:46.924Z,20.30
2022-09-10T16:24:13.701Z,20.20
2022-09-10T16:26:46.693Z,20.10
2022-09-10T16:29:19.368Z,20.00
2022-09-10T16:35:12.974Z,19.90
2022-09-10T16:37:48.228Z,19.80
2022-09-10T16:40:29.934Z,19.70
2022-09-10T16:42:56.631Z,19.60
2022-09-10T16:45:26.208Z,19.60
2022-09-10T16:47:55.784Z,19.60
2022-09-10T16:50:32.276Z,19.60
2022-09-10T16:55:59.329Z,19.70
2022-09-10T16:58:57.961Z,19.60
2022-09-10T17:04:46.426Z,19.40
2022-09-10T17:08:03.484Z,19.30
2022-09-10T17:17:05.900Z,19.20
2022-09-10T17:19:37.174Z,19.20
2022-09-10T17:22:20.167Z,19.20
2022-09-10T17:27:48.295Z,19.20
2022-09-10T17:30:26.287Z,19.20
2022-09-10T17:33:19.347Z,19.20
2022-09-10T17:42:05.876Z,19.10
2022-09-10T17:45:09.636Z,19.10
2022-09-10T17:54:23.946Z,18.90
2022-09-10T18:00:23.987Z,18.80
2022-09-10T18:02:59.526Z,18.80
2022-09-10T18:09:12.881Z,18.70
2022-09-10T18:15:03.124Z,18.50
2022-09-10T18:17:29.769Z,18.50
2022-09-10T18:20:04.806Z,18.40
2022-09-10T18:22:46.577Z,18.40
2022-09-10T18:25:15.956Z,18.30
2022-09-10T18:27:42.741Z,18.30
2022-09-10T18:30:27.936Z,18.30
2022-09-10T18:43:09.262Z,18.10
2022-09-10T18:48:53.668Z,18.10
2022-09-10T18:51:24.133Z,18.00
2022-09-10T18:57:26.645Z,18.00
2022-09-10T19:00:04.884Z,17.90
2022-09-10T19:02:34.485Z,17.90
2022-09-10T19:05:15.490Z,17.90
2022-09-10T19:07:42.266Z,17.80
2022-09-10T20:48:11.985Z,16.40
2022-09-10T20:51:21.385Z,16.40
2022-09-10T20:53:48.131Z,16.40
2022-09-10T20:56:17.853Z,16.40
2022-09-10T20:59:25.561Z,16.30
2022-09-10T21:01:36.081Z,16.30
2022-09-10T21:04:03.121Z,16.30
2022-09-10T21:06:35.297Z,16.20
2022-09-10T21:09:02.389Z,16.20
2022-09-10T21:11:33.586Z,16.10
2022-09-10T21:14:02.417Z,16.10
2022-09-10T21:16:34.883Z,16.00
2022-09-10T21:19:04.289Z,16.00
2022-09-10T21:21:32.968Z,16.00
2022-09-10T21:24:05.181Z,16.00
2022-09-10T21:26:33.907Z,16.00
2022-09-10T21:29:02.251Z,16.00
2022-09-10T21:31:31.493Z,15.90
2022-09-10T21:34:03.066Z,15.90
2022-09-10T21:37:06.168Z,15.90
2022-09-10T21:39:32.861Z,15.80
2022-09-10T21:42:03.792Z,15.80
2022-09-10T21:44:30.569Z,15.80
2022-09-10T21:46:57.393Z,15.80
2022-09-10T21:49:24.395Z,15.80
2022-09-10T21:51:51.044Z,15.80
2022-09-10T21:54:20.801Z,15.80
2022-09-10T21:57:01.997Z,15.80
2022-09-10T21:59:28.663Z,15.80
2022-09-10T22:01:55.378Z,15.70
2022-09-10T22:04:23.277Z,15.70
2022-09-10T22:06:50.191Z,15.70
2022-09-10T22:09:16.816Z,15.70
2022-09-10T22:11:53.434Z,15.60
2022-09-10T22:14:22.872Z,15.60
2022-09-10T22:16:50.250Z,15.60
2022-09-10T22:19:40.020Z,15.60
2022-09-10T22:30:49.763Z,15.50
2022-09-10T22:33:16.536Z,15.50
2022-09-10T22:35:43.141Z,15.60
2022-09-10T22:38:22.169Z,15.60
2022-09-10T23:07:02.917Z,15.40
2022-09-10T23:09:29.902Z,15.40
2022-09-10T23:11:56.491Z,15.40
2022-09-10T23:14:23.092Z,15.30
2022-09-10T23:16:50.240Z,15.30
2022-09-10T23:19:22.273Z,15.30
2022-09-10T23:21:51.219Z,15.30
2022-09-10T23:27:03.006Z,15.30
2022-09-10T23:29:41.988Z,15.30
2022-09-10T23:32:08.877Z,15.30
2022-09-10T23:34:35.765Z,15.30
2022-09-10T23:37:05.829Z,15.20
2022-09-10T23:44:44.320Z,15.20
2022-09-10T23:46:07.355Z,15.10
2022-09-10T23:48:34.712Z,15.00
2022-09-10T23:51:34.819Z,15.00
2022-09-10T23:54:12.280Z,14.90
